M\t Procida — IBJT — position and weather

sailwx.info

Track history (hours):
 
Tides and Currents Weather Stations Pressure Air Temp Water Temp Dewpoint Dewpoint Depression Visibility Wind Speed Wind Dir Waves Ship Positions

M\t Procida

Last reported at 2017-Jan-16 15:32 UTC. Time now 2017-Jan-17 04:56 UTC.
Position N 56°02' W 003°37'.

Length 149 m; draft 6.5 m.

Type: Tanker. MMSI: 247258400.

Date/timePositionNaut miles runAvg speedWind from/ knotsBaromVisibWave heightAir tempDewpointWater temp
2017-Jan-16 15:32N 56°02' W 003°37'1110.8
2017-Jan-16 14:33N 56°02' W 003°18'8 7.7
2017-Jan-16 13:32N 56°05' W 003°05'0 0.1
2017-Jan-16 12:32N 56°05' W 003°04'0 0.2
2017-Jan-16 11:34N 56°05' W 003°04'9 9.0
2017-Jan-16 10:33N 56°07' W 002°48'1211.8
2017-Jan-16 09:33N 56°07' W 002°27'1212.2
2017-Jan-16 08:34N 56°04' W 002°06'1211.9
2017-Jan-16 07:34N 55°59' W 001°47'1211.6
2017-Jan-16 06:33N 55°50' W 001°34'1010.4
2017-Jan-16 05:33N 55°42' W 001°22'10 9.9
2017-Jan-16 04:33N 55°34' W 001°10'1110.4
2017-Jan-16 03:32N 55°27' W 000°57'4711.6
2017-Jan-15 23:27N 54°51' W 000°03'1112.1
2017-Jan-15 22:34N 54°43' E 000°10'1211.6
2017-Jan-15 21:34N 54°34' E 000°23'18610.2
2017-Jan-15 03:21N 52°08' E 003°36'810.2
2017-Jan-15 02:34N 52°05' E 003°48'8 8.1
2017-Jan-15 01:33N 52°01' E 003°59'8 7.9
2017-Jan-15 00:34N 51°57' E 004°10'2 1.5
2017-Jan-14 23:32N 51°56' E 004°12'0 0.0
2017-Jan-14 22:32N 51°56' E 004°12'0 0.0
2017-Jan-14 21:32N 51°56' E 004°12'0 0.0
2017-Jan-14 20:32N 51°56' E 004°12'0 0.0
2017-Jan-14 19:32N 51°56' E 004°12'0 0.0
2017-Jan-14 18:32N 51°56' E 004°12'0 0.0
2017-Jan-14 17:32N 51°56' E 004°12'0 0.0
2017-Jan-14 16:32N 51°56' E 004°12'0 0.0
2017-Jan-14 15:32N 51°56' E 004°12'0 0.0
2017-Jan-14 14:32N 51°56' E 004°12'0 0.0
2017-Jan-14 13:32N 51°56' E 004°12'0 0.0
2017-Jan-14 12:32N 51°56' E 004°12'0 0.0
2017-Jan-14 11:32N 51°56' E 004°12'0 0.0
2017-Jan-14 10:32N 51°56' E 004°12'0 0.0
2017-Jan-14 09:32N 51°56' E 004°12'0 0.0
2017-Jan-14 08:32N 51°56' E 004°12'0 0.0
2017-Jan-14 07:29N 51°56' E 004°12'0 0.0
2017-Jan-14 06:32N 51°56' E 004°12'0 0.0
2017-Jan-14 05:32N 51°56' E 004°12'0 0.0
2017-Jan-14 04:32N 51°56' E 004°12'0 0.0
2017-Jan-14 03:29N 51°56' E 004°12'0 0.0
2017-Jan-13 23:32N 51°56' E 004°12'0 0.0
2017-Jan-13 22:32N 51°56' E 004°12'0 0.0
2017-Jan-13 21:29N 51°56' E 004°12'0 0.0
2017-Jan-13 20:32N 51°56' E 004°12'0 0.0
2017-Jan-13 19:32N 51°56' E 004°12'0 0.0
2017-Jan-13 18:29N 51°56' E 004°12'0 0.0
2017-Jan-13 17:32N 51°56' E 004°12'0 0.0
2017-Jan-13 16:32N 51°56' E 004°12'0 0.0
2017-Jan-13 15:32N 51°56' E 004°12'0 0.0
2017-Jan-13 14:32N 51°56' E 004°12'0 0.0
2017-Jan-13 13:32N 51°56' E 004°12'0 0.0
2017-Jan-13 12:32N 51°56' E 004°12'0 0.0
2017-Jan-13 11:29N 51°56' E 004°12'0 0.0
2017-Jan-13 10:32N 51°56' E 004°12'0 0.0
2017-Jan-13 09:32N 51°56' E 004°12'0 0.0
2017-Jan-13 08:29N 51°56' E 004°12'0 0.0
2017-Jan-13 07:32N 51°56' E 004°12'0 0.0
2017-Jan-13 06:32N 51°56' E 004°12'0 0.0
2017-Jan-13 05:32N 51°56' E 004°12'0 0.0
2017-Jan-13 04:32N 51°56' E 004°12'0 0.0
2017-Jan-13 03:29N 51°56' E 004°12'0 0.0
2017-Jan-13 02:32N 51°56' E 004°12'0 0.0
2017-Jan-13 01:32N 51°56' E 004°12'0 0.0
2017-Jan-13 00:32N 51°56' E 004°12'0 0.0
2017-Jan-12 23:32N 51°56' E 004°12'0 0.0
2017-Jan-12 22:32N 51°56' E 004°12'0 0.0
2017-Jan-12 21:32N 51°56' E 004°12'0 0.0
2017-Jan-12 20:32N 51°56' E 004°12'0 0.0
2017-Jan-12 19:32N 51°56' E 004°12'0 0.0
2017-Jan-12 18:32N 51°56' E 004°12'0 0.0
2017-Jan-12 17:32N 51°56' E 004°12'0 0.0
2017-Jan-12 16:32N 51°56' E 004°12'0 0.0
2017-Jan-12 15:29N 51°56' E 004°12'0 0.0
2017-Jan-12 14:33N 51°56' E 004°12'3 2.9
2017-Jan-12 13:33N 51°57' E 004°08'1110.8
2017-Jan-12 12:34N 51°60' E 003°51'6 5.7
2017-Jan-12 11:33N 52°01' E 003°42'1 1.2
2017-Jan-12 10:32N 52°01' E 003°41'4 4.2
2017-Jan-12 09:33N 52°05' E 003°37'172 9.0
2017-Jan-11 14:30N 54°21' E 000°42'1313.9
2017-Jan-11 13:33N 54°31' E 000°27'1413.7
2017-Jan-11 12:34N 54°41' E 000°12'1313.2
2017-Jan-11 11:34N 54°51' W 000°03'5012.5
2017-Jan-11 07:33N 55°29' W 001°01'1212.2
2017-Jan-11 06:32N 55°38' W 001°16'1212.1
2017-Jan-11 05:33N 55°47' W 001°30'1212.1
2017-Jan-11 04:33N 55°56' W 001°44'1312.8
2017-Jan-11 03:34N 56°03' W 002°03'1413.9
2017-Jan-11 02:34N 56°07' W 002°27'1413.6
2017-Jan-11 01:33N 56°05' W 002°51'1212.0
2017-Jan-11 00:33N 56°02' W 003°12'1411.0
2017-Jan-10 23:15N 56°02' W 003°38'11 0.2
2017-Jan-08 20:33N 56°01' W 003°19'8 8.2
2017-Jan-08 19:34N 56°05' W 003°05'0 0.1
2017-Jan-08 18:31N 56°05' W 003°05'0 0.1
2017-Jan-08 17:31N 56°05' W 003°05'0 0.0
2017-Jan-08 16:31N 56°05' W 003°05'0 0.0
2017-Jan-08 15:31N 56°05' W 003°05'0 0.0
2017-Jan-08 14:31N 56°05' W 003°05'0 0.0
2017-Jan-08 13:31N 56°05' W 003°05'0 0.0
2017-Jan-08 12:31N 56°05' W 003°05'0 0.0
2017-Jan-08 11:31N 56°05' W 003°05'0 0.0
2017-Jan-08 10:25N 56°05' W 003°05'0 0.0
2017-Jan-08 09:31N 56°05' W 003°05'0 0.1
2017-Jan-08 08:31N 56°05' W 003°05'0 0.0
2017-Jan-08 07:31N 56°05' W 003°05'0 0.1
2017-Jan-08 06:31N 56°05' W 003°05'0 0.0
2017-Jan-08 05:31N 56°05' W 003°05'0 0.0
2017-Jan-08 04:31N 56°05' W 003°05'0 0.0
2017-Jan-08 03:31N 56°05' W 003°05'0 0.0
2017-Jan-08 02:31N 56°05' W 003°05'0 0.0
2017-Jan-08 01:31N 56°05' W 003°05'0 0.0
2017-Jan-08 00:31N 56°05' W 003°05'0 0.0
2017-Jan-07 23:31N 56°05' W 003°05'0 0.0
2017-Jan-07 22:31N 56°05' W 003°05'0 0.0
2017-Jan-07 21:31N 56°05' W 003°05'0 0.0
2017-Jan-07 20:31N 56°05' W 003°05'0 0.0
2017-Jan-07 19:31N 56°05' W 003°05'0 0.1
2017-Jan-07 18:31N 56°05' W 003°05'0 0.1
2017-Jan-07 17:31N 56°05' W 003°05'0 0.0
2017-Jan-07 16:31N 56°05' W 003°05'0 0.0
2017-Jan-07 15:31N 56°05' W 003°05'0 0.0
2017-Jan-07 14:31N 56°05' W 003°05'0 0.0
2017-Jan-07 13:31N 56°05' W 003°05'0 0.0
2017-Jan-07 12:31N 56°05' W 003°05'0 0.0
2017-Jan-07 11:31N 56°05' W 003°05'0 0.0
2017-Jan-07 10:31N 56°05' W 003°05'0 0.0
2017-Jan-07 09:31N 56°05' W 003°05'0 0.1
2017-Jan-07 08:33N 56°05' W 003°05'9 9.4
2017-Jan-07 07:33N 56°07' W 002°49'1010.2
2017-Jan-07 06:33N 56°07' W 002°31'1010.1
2017-Jan-07 05:33N 56°05' W 002°13'1010.0
2017-Jan-07 04:33N 56°03' W 001°56'1212.4
2017-Jan-07 03:33N 55°59' W 001°34'1312.9
2017-Jan-07 02:32N 55°54' W 001°12'  
Track history (hours):
 
Tides and Currents Weather Stations Pressure Air Temp Water Temp Dewpoint Dewpoint Depression Visibility Wind Speed Wind Dir Waves Ship Positions

M\t Procida

Last reported at 2017-Jan-16 15:32 UTC. Time now 2017-Jan-17 04:56 UTC.
Position N 56°02' W 003°37'.

Length 149 m; draft 6.5 m.

Type: Tanker. MMSI: 247258400.

Date/timePositionNaut miles runAvg speedWind from/ knotsBaromVisibWave heightAir tempDewpointWater temp
2017-Jan-16 15:32N 56°02' W 003°37'1110.8
2017-Jan-16 14:33N 56°02' W 003°18'8 7.7
2017-Jan-16 13:32N 56°05' W 003°05'0 0.1
2017-Jan-16 12:32N 56°05' W 003°04'0 0.2
2017-Jan-16 11:34N 56°05' W 003°04'9 9.0
2017-Jan-16 10:33N 56°07' W 002°48'1211.8
2017-Jan-16 09:33N 56°07' W 002°27'1212.2
2017-Jan-16 08:34N 56°04' W 002°06'1211.9
2017-Jan-16 07:34N 55°59' W 001°47'1211.6
2017-Jan-16 06:33N 55°50' W 001°34'1010.4
2017-Jan-16 05:33N 55°42' W 001°22'10 9.9
2017-Jan-16 04:33N 55°34' W 001°10'1110.4
2017-Jan-16 03:32N 55°27' W 000°57'4711.6
2017-Jan-15 23:27N 54°51' W 000°03'1112.1
2017-Jan-15 22:34N 54°43' E 000°10'1211.6
2017-Jan-15 21:34N 54°34' E 000°23'18610.2
2017-Jan-15 03:21N 52°08' E 003°36'810.2
2017-Jan-15 02:34N 52°05' E 003°48'8 8.1
2017-Jan-15 01:33N 52°01' E 003°59'8 7.9
2017-Jan-15 00:34N 51°57' E 004°10'2 1.5
2017-Jan-14 23:32N 51°56' E 004°12'0 0.0
2017-Jan-14 22:32N 51°56' E 004°12'0 0.0
2017-Jan-14 21:32N 51°56' E 004°12'0 0.0
2017-Jan-14 20:32N 51°56' E 004°12'0 0.0
2017-Jan-14 19:32N 51°56' E 004°12'0 0.0
2017-Jan-14 18:32N 51°56' E 004°12'0 0.0
2017-Jan-14 17:32N 51°56' E 004°12'0 0.0
2017-Jan-14 16:32N 51°56' E 004°12'0 0.0
2017-Jan-14 15:32N 51°56' E 004°12'0 0.0
2017-Jan-14 14:32N 51°56' E 004°12'0 0.0
2017-Jan-14 13:32N 51°56' E 004°12'0 0.0
2017-Jan-14 12:32N 51°56' E 004°12'0 0.0
2017-Jan-14 11:32N 51°56' E 004°12'0 0.0
2017-Jan-14 10:32N 51°56' E 004°12'0 0.0
2017-Jan-14 09:32N 51°56' E 004°12'0 0.0
2017-Jan-14 08:32N 51°56' E 004°12'0 0.0
2017-Jan-14 07:29N 51°56' E 004°12'0 0.0
2017-Jan-14 06:32N 51°56' E 004°12'0 0.0
2017-Jan-14 05:32N 51°56' E 004°12'0 0.0
2017-Jan-14 04:32N 51°56' E 004°12'0 0.0
2017-Jan-14 03:29N 51°56' E 004°12'0 0.0
2017-Jan-13 23:32N 51°56' E 004°12'0 0.0
2017-Jan-13 22:32N 51°56' E 004°12'0 0.0
2017-Jan-13 21:29N 51°56' E 004°12'0 0.0
2017-Jan-13 20:32N 51°56' E 004°12'0 0.0
2017-Jan-13 19:32N 51°56' E 004°12'0 0.0
2017-Jan-13 18:29N 51°56' E 004°12'0 0.0
2017-Jan-13 17:32N 51°56' E 004°12'0 0.0
2017-Jan-13 16:32N 51°56' E 004°12'0 0.0
2017-Jan-13 15:32N 51°56' E 004°12'0 0.0
2017-Jan-13 14:32N 51°56' E 004°12'0 0.0
2017-Jan-13 13:32N 51°56' E 004°12'0 0.0
2017-Jan-13 12:32N 51°56' E 004°12'0 0.0
2017-Jan-13 11:29N 51°56' E 004°12'0 0.0
2017-Jan-13 10:32N 51°56' E 004°12'0 0.0
2017-Jan-13 09:32N 51°56' E 004°12'0 0.0
2017-Jan-13 08:29N 51°56' E 004°12'0 0.0
2017-Jan-13 07:32N 51°56' E 004°12'0 0.0
2017-Jan-13 06:32N 51°56' E 004°12'0 0.0
2017-Jan-13 05:32N 51°56' E 004°12'0 0.0
2017-Jan-13 04:32N 51°56' E 004°12'0 0.0
2017-Jan-13 03:29N 51°56' E 004°12'0 0.0
2017-Jan-13 02:32N 51°56' E 004°12'0 0.0
2017-Jan-13 01:32N 51°56' E 004°12'0 0.0
2017-Jan-13 00:32N 51°56' E 004°12'0 0.0
2017-Jan-12 23:32N 51°56' E 004°12'0 0.0
2017-Jan-12 22:32N 51°56' E 004°12'0 0.0
2017-Jan-12 21:32N 51°56' E 004°12'0 0.0
2017-Jan-12 20:32N 51°56' E 004°12'0 0.0
2017-Jan-12 19:32N 51°56' E 004°12'0 0.0
2017-Jan-12 18:32N 51°56' E 004°12'0 0.0
2017-Jan-12 17:32N 51°56' E 004°12'0 0.0
2017-Jan-12 16:32N 51°56' E 004°12'0 0.0
2017-Jan-12 15:29N 51°56' E 004°12'0 0.0
2017-Jan-12 14:33N 51°56' E 004°12'3 2.9
2017-Jan-12 13:33N 51°57' E 004°08'1110.8
2017-Jan-12 12:34N 51°60' E 003°51'6 5.7
2017-Jan-12 11:33N 52°01' E 003°42'1 1.2
2017-Jan-12 10:32N 52°01' E 003°41'4 4.2
2017-Jan-12 09:33N 52°05' E 003°37'172 9.0
2017-Jan-11 14:30N 54°21' E 000°42'1313.9
2017-Jan-11 13:33N 54°31' E 000°27'1413.7
2017-Jan-11 12:34N 54°41' E 000°12'1313.2
2017-Jan-11 11:34N 54°51' W 000°03'5012.5
2017-Jan-11 07:33N 55°29' W 001°01'1212.2
2017-Jan-11 06:32N 55°38' W 001°16'1212.1
2017-Jan-11 05:33N 55°47' W 001°30'1212.1
2017-Jan-11 04:33N 55°56' W 001°44'1312.8
2017-Jan-11 03:34N 56°03' W 002°03'1413.9
2017-Jan-11 02:34N 56°07' W 002°27'1413.6
2017-Jan-11 01:33N 56°05' W 002°51'1212.0
2017-Jan-11 00:33N 56°02' W 003°12'1411.0
2017-Jan-10 23:15N 56°02' W 003°38'11 0.2
2017-Jan-08 20:33N 56°01' W 003°19'8 8.2
2017-Jan-08 19:34N 56°05' W 003°05'0 0.1
2017-Jan-08 18:31N 56°05' W 003°05'0 0.1
2017-Jan-08 17:31N 56°05' W 003°05'0 0.0
2017-Jan-08 16:31N 56°05' W 003°05'0 0.0
2017-Jan-08 15:31N 56°05' W 003°05'0 0.0
2017-Jan-08 14:31N 56°05' W 003°05'0 0.0
2017-Jan-08 13:31N 56°05' W 003°05'0 0.0
2017-Jan-08 12:31N 56°05' W 003°05'0 0.0
2017-Jan-08 11:31N 56°05' W 003°05'0 0.0
2017-Jan-08 10:25N 56°05' W 003°05'0 0.0
2017-Jan-08 09:31N 56°05' W 003°05'0 0.1
2017-Jan-08 08:31N 56°05' W 003°05'0 0.0
2017-Jan-08 07:31N 56°05' W 003°05'0 0.1
2017-Jan-08 06:31N 56°05' W 003°05'0 0.0
2017-Jan-08 05:31N 56°05' W 003°05'0 0.0
2017-Jan-08 04:31N 56°05' W 003°05'0 0.0
2017-Jan-08 03:31N 56°05' W 003°05'0 0.0
2017-Jan-08 02:31N 56°05' W 003°05'0 0.0
2017-Jan-08 01:31N 56°05' W 003°05'0 0.0
2017-Jan-08 00:31N 56°05' W 003°05'0 0.0
2017-Jan-07 23:31N 56°05' W 003°05'0 0.0
2017-Jan-07 22:31N 56°05' W 003°05'0 0.0
2017-Jan-07 21:31N 56°05' W 003°05'0 0.0
2017-Jan-07 20:31N 56°05' W 003°05'0 0.0
2017-Jan-07 19:31N 56°05' W 003°05'0 0.1
2017-Jan-07 18:31N 56°05' W 003°05'0 0.1
2017-Jan-07 17:31N 56°05' W 003°05'0 0.0
2017-Jan-07 16:31N 56°05' W 003°05'0 0.0
2017-Jan-07 15:31N 56°05' W 003°05'0 0.0
2017-Jan-07 14:31N 56°05' W 003°05'0 0.0
2017-Jan-07 13:31N 56°05' W 003°05'0 0.0
2017-Jan-07 12:31N 56°05' W 003°05'0 0.0
2017-Jan-07 11:31N 56°05' W 003°05'0 0.0
2017-Jan-07 10:31N 56°05' W 003°05'0 0.0
2017-Jan-07 09:31N 56°05' W 003°05'0 0.1
2017-Jan-07 08:33N 56°05' W 003°05'9 9.4
2017-Jan-07 07:33N 56°07' W 002°49'1010.2
2017-Jan-07 06:33N 56°07' W 002°31'1010.1
2017-Jan-07 05:33N 56°05' W 002°13'1010.0
2017-Jan-07 04:33N 56°03' W 001°56'1212.4
2017-Jan-07 03:33N 55°59' W 001°34'1312.9
2017-Jan-07 02:32N 55°54' W 001°12'  

Dump ship's entire track history